createdAt,value
2017-09-09T00:00:58.231Z,95178.38
2017-09-09T00:03:25.998Z,95180.28
2017-09-09T00:05:53.518Z,95171.71
2017-09-09T00:08:21.135Z,95164.06
2017-09-09T00:10:48.640Z,95163.09
2017-09-09T00:13:16.174Z,95180.91
2017-09-09T00:15:43.712Z,95176.11
2017-09-09T00:18:11.214Z,95173.02
2017-09-09T00:20:39.034Z,95178.06
2017-09-09T00:23:06.683Z,95179.06
2017-09-09T00:25:34.251Z,95183.39
2017-09-09T00:28:01.950Z,95187.08
2017-09-09T00:30:29.522Z,95189.83
2017-09-09T00:32:57.263Z,95195.52
2017-09-09T00:35:24.772Z,95192.81
2017-09-09T00:37:52.326Z,95195.02
2017-09-09T00:40:20.085Z,95188.96
2017-09-09T00:42:47.641Z,95190.34
2017-09-09T00:45:15.202Z,95206.39
2017-09-09T00:47:42.722Z,95197.77
2017-09-09T00:50:10.264Z,95208.23
2017-09-09T00:52:37.831Z,95197.23
2017-09-09T00:55:05.413Z,95206.87
2017-09-09T00:57:32.973Z,95214.13
2017-09-09T01:00:00.509Z,95215.28
2017-09-09T01:02:28.052Z,95213.53
2017-09-09T01:04:57.232Z,95213.16
2017-09-09T01:07:24.850Z,95217.44
2017-09-09T01:09:52.433Z,95204.68
2017-09-09T01:12:19.981Z,95212.94
2017-09-09T01:14:47.815Z,95207.44
2017-09-09T01:17:15.418Z,95216.64
2017-09-09T01:19:42.984Z,95215.70
2017-09-09T01:22:10.554Z,95217.48
2017-09-09T01:24:38.174Z,95210.39
2017-09-09T01:27:05.725Z,95198.27
2017-09-09T01:29:33.286Z,95195.72
2017-09-09T01:32:00.888Z,95204.75
2017-09-09T01:34:28.468Z,95211.05
2017-09-09T01:36:56.063Z,95208.32
2017-09-09T01:39:23.617Z,95212.42
2017-09-09T01:41:51.130Z,95215.58
2017-09-09T01:44:18.638Z,95209.47
2017-09-09T01:46:46.219Z,95207.95
2017-09-09T01:49:13.777Z,95206.68
2017-09-09T01:51:41.311Z,95201.67
2017-09-09T01:54:09.097Z,95194.44
2017-09-09T01:56:37.533Z,95191.30
2017-09-09T01:59:05.062Z,95198.38
2017-09-09T02:01:32.621Z,95197.61
2017-09-09T02:04:00.160Z,95187.60
2017-09-09T02:06:27.719Z,95189.17
2017-09-09T02:08:55.354Z,95183.88
2017-09-09T02:11:22.875Z,95179.77
2017-09-09T02:13:50.409Z,95182.91
2017-09-09T02:16:18.020Z,95186.64
2017-09-09T02:18:45.585Z,95188.42
2017-09-09T02:21:13.162Z,95190.55
2017-09-09T02:23:40.737Z,95190.56
2017-09-09T02:26:08.534Z,95188.21
2017-09-09T02:28:36.051Z,95188.41
2017-09-09T02:31:03.659Z,95192.54
2017-09-09T02:33:31.185Z,95189.01
2017-09-09T02:35:58.743Z,95180.95
2017-09-09T02:38:26.349Z,95178.83
2017-09-09T02:40:53.909Z,95182.38
2017-09-09T02:43:21.434Z,95174.20
2017-09-09T02:45:49.017Z,95177.28
2017-09-09T02:48:16.529Z,95165.72
2017-09-09T02:50:44.061Z,95166.34
2017-09-09T02:53:11.625Z,95156.55
2017-09-09T02:55:39.162Z,95159.29
2017-09-09T02:58:06.693Z,95144.06
2017-09-09T03:00:34.257Z,95137.98
2017-09-09T03:03:01.863Z,95146.20
2017-09-09T03:05:29.397Z,95157.78
2017-09-09T03:07:56.958Z,95161.29
2017-09-09T03:10:24.486Z,95161.09
2017-09-09T03:12:52.225Z,95159.14
2017-09-09T03:15:19.799Z,95148.22
2017-09-09T03:17:47.546Z,95137.86
2017-09-09T03:20:15.064Z,95137.25
2017-09-09T03:22:42.616Z,95134.13
2017-09-09T03:25:10.174Z,95130.03
2017-09-09T03:27:37.702Z,95135.68
2017-09-09T03:30:06.617Z,95130.04
2017-09-09T03:32:34.272Z,95137.45
2017-09-09T03:35:02.824Z,95126.89
2017-09-09T03:37:30.441Z,95125.91
2017-09-09T03:39:57.954Z,95136.69
2017-09-09T03:42:25.480Z,95141.78
2017-09-09T03:44:53.025Z,95151.55
2017-09-09T03:47:20.785Z,95146.61
2017-09-09T03:49:48.301Z,95145.66
2017-09-09T03:52:15.863Z,95151.13
2017-09-09T03:54:43.984Z,95149.01
2017-09-09T03:57:11.517Z,95141.72
2017-09-09T03:59:39.117Z,95139.39
2017-09-09T04:02:06.699Z,95144.31
2017-09-09T04:04:34.233Z,95139.59
2017-09-09T04:07:01.754Z,95130.22
2017-09-09T04:09:29.528Z,95134.72
2017-09-09T04:11:57.057Z,95145.09
2017-09-09T04:14:24.597Z,95146.84
2017-09-09T04:16:52.151Z,95138.63
2017-09-09T04:19:19.936Z,95139.59
2017-09-09T04:21:47.469Z,95137.83
2017-09-09T04:24:15.395Z,95149.73
2017-09-09T04:26:42.926Z,95134.06
2017-09-09T04:29:10.465Z,95131.28
2017-09-09T04:31:38.069Z,95128.08
2017-09-09T04:34:05.630Z,95129.66
2017-09-09T04:36:33.199Z,95115.91
2017-09-09T04:39:00.810Z,95105.15
2017-09-09T04:41:28.378Z,95117.64
2017-09-09T04:43:56.136Z,95135.48
2017-09-09T04:46:23.713Z,95141.61
2017-09-09T04:48:51.235Z,95144.13
2017-09-09T04:51:18.758Z,95137.19
2017-09-09T04:53:46.290Z,95121.89
2017-09-09T04:56:13.869Z,95129.81
2017-09-09T04:58:41.362Z,95123.73
2017-09-09T05:01:08.886Z,95119.70
2017-09-09T05:03:36.370Z,95112.64
2017-09-09T05:06:03.862Z,95113.36
2017-09-09T05:08:31.615Z,95113.47
2017-09-09T05:10:59.102Z,95115.11
2017-09-09T05:13:26.650Z,95099.48
2017-09-09T05:15:54.383Z,95095.95
2017-09-09T05:18:21.858Z,95094.13
2017-09-09T05:20:49.345Z,95101.72
2017-09-09T05:23:16.882Z,95122.78
2017-09-09T05:25:44.389Z,95130.61
2017-09-09T05:28:11.884Z,95123.75
2017-09-09T05:30:39.443Z,95106.49
2017-09-09T05:33:07.304Z,95096.62
2017-09-09T05:35:34.823Z,95095.16
2017-09-09T05:38:02.390Z,95091.56
2017-09-09T05:40:29.890Z,95085.82
2017-09-09T05:42:57.382Z,95082.98
2017-09-09T05:45:24.906Z,95095.81
2017-09-09T05:47:52.414Z,95096.01
2017-09-09T05:50:19.919Z,95090.18
2017-09-09T05:52:47.478Z,95079.17
2017-09-09T05:55:14.980Z,95088.38
2017-09-09T05:57:42.514Z,95098.77
2017-09-09T06:00:10.183Z,95090.63
2017-09-09T06:02:37.676Z,95090.14
2017-09-09T06:05:05.492Z,95091.70
2017-09-09T06:07:33.035Z,95082.51
2017-09-09T06:10:00.527Z,95085.85
2017-09-09T06:12:28.250Z,95083.57
2017-09-09T06:14:56.058Z,95089.71
2017-09-09T06:17:23.596Z,95078.10
2017-09-09T06:19:51.138Z,95073.35
2017-09-09T06:22:18.681Z,95078.97
2017-09-09T06:24:46.194Z,95080.94
2017-09-09T06:27:13.686Z,95086.84
2017-09-09T06:29:41.239Z,95074.80
2017-09-09T06:32:08.770Z,95089.56
2017-09-09T06:34:36.275Z,95080.67
2017-09-09T06:37:03.757Z,95084.92
2017-09-09T06:39:31.333Z,95104.61
2017-09-09T06:41:59.253Z,95083.42
2017-09-09T06:44:26.966Z,95094.27
2017-09-09T06:46:54.504Z,95089.11
2017-09-09T06:49:21.995Z,95110.06
2017-09-09T06:51:49.495Z,95105.34
2017-09-09T06:54:17.039Z,95109.33
2017-09-09T06:56:44.746Z,95101.91
2017-09-09T06:59:12.227Z,95093.20
2017-09-09T07:01:40.119Z,95089.95
2017-09-09T07:04:07.871Z,95078.29
2017-09-09T07:06:35.384Z,95084.31
2017-09-09T07:09:02.962Z,95080.81
2017-09-09T07:11:30.485Z,95090.69
2017-09-09T07:13:58.021Z,95078.39
2017-09-09T07:16:25.613Z,95078.08
2017-09-09T07:18:53.155Z,95083.92
2017-09-09T07:21:20.679Z,95069.45
2017-09-09T07:23:48.304Z,95061.63
2017-09-09T07:26:15.851Z,95069.20
2017-09-09T07:28:43.409Z,95077.57
2017-09-09T07:31:10.990Z,95080.29
2017-09-09T07:33:38.510Z,95068.48
2017-09-09T07:36:06.049Z,95062.17
2017-09-09T07:38:33.655Z,95071.86
2017-09-09T07:41:01.186Z,95059.92
2017-09-09T07:43:28.725Z,95056.96
2017-09-09T07:45:56.298Z,95044.61
2017-09-09T07:48:23.834Z,95038.52
2017-09-09T07:50:51.356Z,95047.39
2017-09-09T07:53:18.928Z,95043.39
2017-09-09T07:55:46.461Z,95042.92
2017-09-09T07:58:13.995Z,95038.00
2017-09-09T08:00:41.587Z,95040.73
2017-09-09T08:03:09.122Z,95045.83
2017-09-09T08:05:36.812Z,95046.23
2017-09-09T08:08:04.419Z,95059.69
2017-09-09T08:10:32.206Z,95046.80
2017-09-09T08:12:59.762Z,95039.06
2017-09-09T08:15:27.344Z,95039.92
2017-09-09T08:17:55.086Z,95034.30
2017-09-09T08:20:22.608Z,95028.27
2017-09-09T08:22:50.243Z,95021.17
2017-09-09T08:25:17.830Z,95030.16
2017-09-09T08:27:45.350Z,95014.91
2017-09-09T08:30:13.002Z,95023.16
2017-09-09T08:32:40.525Z,95026.73
2017-09-09T08:35:08.067Z,94998.44
2017-09-09T08:37:35.789Z,95006.27
2017-09-09T08:40:03.322Z,95011.01
2017-09-09T08:42:30.858Z,94997.92
2017-09-09T08:44:58.417Z,95001.80
2017-09-09T08:47:25.946Z,94986.20
2017-09-09T08:49:53.508Z,94980.70
2017-09-09T08:52:21.098Z,94973.94
2017-09-09T08:54:48.847Z,94975.83
2017-09-09T08:57:16.370Z,94989.17
2017-09-09T08:59:43.954Z,94988.14
2017-09-09T09:02:11.512Z,94967.11
2017-09-09T09:04:39.062Z,94981.66
2017-09-09T09:07:06.571Z,94969.90
2017-09-09T09:09:34.108Z,94967.05
2017-09-09T09:12:01.618Z,94976.26
2017-09-09T09:14:29.147Z,94964.86
2017-09-09T09:16:56.707Z,94970.06
2017-09-09T09:19:24.460Z,94975.06
2017-09-09T09:21:52.089Z,94956.69
2017-09-09T09:24:19.795Z,94948.70
2017-09-09T09:26:47.427Z,94960.07
2017-09-09T09:29:14.950Z,94945.78
2017-09-09T09:31:42.484Z,94936.55
2017-09-09T09:34:10.461Z,94943.88
2017-09-09T09:36:37.983Z,94938.64
2017-09-09T09:39:05.551Z,94940.46
2017-09-09T09:41:33.068Z,94945.02
2017-09-09T09:44:00.592Z,94941.43
2017-09-09T09:46:28.135Z,94946.20
2017-09-09T09:48:55.908Z,94952.76
2017-09-09T09:51:23.429Z,94950.20
2017-09-09T09:53:51.008Z,94946.83
2017-09-09T09:56:18.573Z,94934.89
2017-09-09T09:58:46.189Z,94938.20
2017-09-09T10:01:13.788Z,94931.05
2017-09-09T10:03:41.513Z,94935.84
2017-09-09T10:06:09.033Z,94938.85
2017-09-09T10:08:36.603Z,94928.42
2017-09-09T10:11:05.768Z,94906.95
2017-09-09T10:13:33.390Z,94897.91
2017-09-09T10:16:00.977Z,94886.56
2017-09-09T10:18:28.513Z,94887.30
2017-09-09T10:20:56.067Z,94885.17
2017-09-09T10:23:23.648Z,94883.02
2017-09-09T10:25:51.804Z,94868.02
2017-09-09T10:28:19.356Z,94859.80
2017-09-09T10:30:47.146Z,94884.61
2017-09-09T10:33:14.706Z,94878.28
2017-09-09T10:35:42.205Z,94869.03
2017-09-09T10:38:09.788Z,94901.31
2017-09-09T10:40:37.316Z,94890.10
2017-09-09T10:43:04.846Z,94855.05
2017-09-09T10:45:32.418Z,94859.05
2017-09-09T10:47:59.957Z,94859.55
2017-09-09T10:50:27.698Z,94861.67
2017-09-09T10:52:55.302Z,94890.65
2017-09-09T10:55:22.825Z,94854.36
2017-09-09T10:57:50.376Z,94850.13
2017-09-09T11:00:18.039Z,94842.25
2017-09-09T11:02:45.562Z,94839.00
2017-09-09T11:05:13.111Z,94846.32
2017-09-09T11:07:40.661Z,94831.15
2017-09-09T11:10:08.226Z,94835.02
2017-09-09T11:12:35.767Z,94825.34
2017-09-09T11:15:03.350Z,94834.63
2017-09-09T11:17:30.910Z,94833.26
2017-09-09T11:19:58.409Z,94829.64
2017-09-09T11:22:26.017Z,94834.63
2017-09-09T11:24:53.547Z,94848.56
2017-09-09T11:27:21.304Z,94830.90
2017-09-09T11:29:49.085Z,94842.33
2017-09-09T11:32:16.667Z,94837.97
2017-09-09T11:34:44.200Z,94841.49
2017-09-09T11:37:11.770Z,94849.83
2017-09-09T11:39:39.345Z,94845.91
2017-09-09T11:42:07.122Z,94848.00
2017-09-09T11:44:35.478Z,94841.41
2017-09-09T11:47:03.097Z,94836.30
2017-09-09T11:49:30.689Z,94837.88
2017-09-09T11:51:58.207Z,94842.00
2017-09-09T11:54:25.783Z,94857.34
2017-09-09T11:56:53.328Z,94852.86
2017-09-09T11:59:20.883Z,94846.39
2017-09-09T12:01:48.442Z,94858.11
2017-09-09T12:04:16.181Z,94864.14
2017-09-09T12:06:43.924Z,94863.78
2017-09-09T12:09:11.529Z,94864.39
2017-09-09T12:11:40.989Z,94863.70
2017-09-09T12:14:08.568Z,94870.56
2017-09-09T12:16:36.465Z,94862.67
2017-09-09T12:19:04.033Z,94882.17
2017-09-09T12:21:31.617Z,94883.64
2017-09-09T12:23:59.169Z,94887.37
2017-09-09T12:26:26.730Z,94903.56
2017-09-09T12:28:54.262Z,94896.67
2017-09-09T12:31:21.818Z,94898.84
2017-09-09T12:33:49.366Z,94898.69
2017-09-09T12:36:16.917Z,94890.16
2017-09-09T12:38:44.469Z,94911.04
2017-09-09T12:41:11.987Z,94919.11
2017-09-09T12:43:39.756Z,94914.06
2017-09-09T12:46:07.348Z,94929.91
2017-09-09T12:48:34.861Z,94928.03
2017-09-09T12:51:02.616Z,94923.09
2017-09-09T12:53:30.297Z,94909.87
2017-09-09T12:55:57.839Z,94911.75
2017-09-09T12:58:25.413Z,94899.58
2017-09-09T13:00:53.128Z,94905.45
2017-09-09T13:03:20.784Z,94898.62
2017-09-09T13:05:48.609Z,94906.45
2017-09-09T13:08:16.206Z,94891.92
2017-09-09T13:10:43.717Z,94887.95
2017-09-09T13:13:11.467Z,94874.09
2017-09-09T13:15:39.022Z,94865.15
2017-09-09T13:18:06.582Z,94853.20
2017-09-09T13:20:34.138Z,94847.53
2017-09-09T13:23:01.698Z,94836.23
2017-09-09T13:25:29.443Z,94831.55
2017-09-09T13:27:57.001Z,94829.30
2017-09-09T13:30:24.600Z,94850.77
2017-09-09T13:32:52.130Z,94829.94
2017-09-09T13:35:19.637Z,94842.59
2017-09-09T13:37:47.234Z,94844.84
2017-09-09T13:40:14.769Z,94844.89
2017-09-09T13:42:42.416Z,94846.85
2017-09-09T13:45:09.980Z,94858.13
2017-09-09T13:47:37.497Z,94838.99
2017-09-09T13:50:05.038Z,94849.77
2017-09-09T13:52:32.649Z,94846.11
2017-09-09T13:55:00.995Z,94850.72
2017-09-09T13:57:28.568Z,94829.47
2017-09-09T13:59:56.420Z,94819.87
2017-09-09T14:02:25.555Z,94827.94
2017-09-09T14:04:54.824Z,94853.73
2017-09-09T14:07:22.369Z,94835.26
2017-09-09T14:09:49.914Z,94831.63
2017-09-09T14:12:17.497Z,94824.84
2017-09-09T14:14:45.098Z,94826.88
2017-09-09T14:17:12.665Z,94848.31
2017-09-09T14:19:40.251Z,94846.48
2017-09-09T14:22:07.805Z,94846.34
2017-09-09T14:24:35.365Z,94851.66
2017-09-09T14:27:02.914Z,94864.03
2017-09-09T14:29:30.466Z,94873.34
2017-09-09T14:31:58.026Z,94878.09
2017-09-09T14:34:25.645Z,94867.16
2017-09-09T14:36:53.348Z,94845.23
2017-09-09T14:39:20.947Z,94846.91
2017-09-09T14:41:48.474Z,94852.34
2017-09-09T14:44:16.037Z,94844.98
2017-09-09T14:46:43.610Z,94838.77
2017-09-09T14:49:11.201Z,94846.25
2017-09-09T14:51:38.860Z,94846.25
2017-09-09T14:54:06.455Z,94841.27
2017-09-09T14:56:34.114Z,94859.52
2017-09-09T14:59:01.855Z,94853.05
2017-09-09T15:01:29.426Z,94842.67
2017-09-09T15:03:57.276Z,94845.96
2017-09-09T15:06:24.864Z,94851.81
2017-09-09T15:08:52.443Z,94853.97
2017-09-09T15:11:19.949Z,94850.36
2017-09-09T15:13:47.488Z,94855.87
2017-09-09T15:16:15.075Z,94859.06
2017-09-09T15:18:42.595Z,94871.17
2017-09-09T15:21:10.349Z,94871.36
2017-09-09T15:23:37.926Z,94862.05
2017-09-09T15:26:05.448Z,94874.07
2017-09-09T15:28:32.991Z,94873.50
2017-09-09T15:31:00.889Z,94879.77
2017-09-09T15:33:28.436Z,94874.98
2017-09-09T15:35:55.985Z,94870.55
2017-09-09T15:38:23.580Z,94889.48
2017-09-09T15:40:51.137Z,94877.20
2017-09-09T15:43:18.697Z,94864.17
2017-09-09T15:45:46.286Z,94854.92
2017-09-09T15:48:13.821Z,94871.74
2017-09-09T15:50:41.352Z,94863.23
2017-09-09T15:53:08.927Z,94888.37
2017-09-09T15:55:36.467Z,94885.73
2017-09-09T15:58:04.106Z,94894.02
2017-09-09T16:00:31.738Z,94886.78
2017-09-09T16:02:59.536Z,94899.62
2017-09-09T16:05:27.171Z,94906.58
2017-09-09T16:07:54.805Z,94897.89
2017-09-09T16:10:22.376Z,94902.68
2017-09-09T16:12:50.082Z,94902.26
2017-09-09T16:15:17.701Z,94912.11
2017-09-09T16:17:45.296Z,94910.44
2017-09-09T16:20:12.845Z,94901.23
2017-09-09T16:22:40.422Z,94923.25
2017-09-09T16:25:07.935Z,94924.02
2017-09-09T16:27:35.506Z,94930.89
2017-09-09T16:30:06.507Z,94924.33
2017-09-09T16:32:34.246Z,94916.27
2017-09-09T16:35:01.785Z,94917.16
2017-09-09T16:37:29.388Z,94911.16
2017-09-09T16:39:56.967Z,94901.58
2017-09-09T16:42:24.474Z,94909.59
2017-09-09T16:44:52.035Z,94917.27
2017-09-09T16:47:19.547Z,94933.14
2017-09-09T16:49:48.009Z,94927.14
2017-09-09T16:52:15.588Z,94934.96
2017-09-09T16:54:43.106Z,94942.13
2017-09-09T16:57:10.614Z,94948.69
2017-09-09T16:59:38.195Z,94949.84
2017-09-09T17:02:05.744Z,94959.23
2017-09-09T17:04:33.263Z,94961.92
2017-09-09T17:07:01.020Z,94953.54
2017-09-09T17:09:28.581Z,94955.45
2017-09-09T17:11:56.350Z,94958.47
2017-09-09T17:14:24.606Z,94967.79
2017-09-09T17:16:52.178Z,94962.98
2017-09-09T17:19:19.703Z,94977.95
2017-09-09T17:21:48.697Z,94988.42
2017-09-09T17:24:16.358Z,94992.24
2017-09-09T17:26:43.915Z,94985.60
2017-09-09T17:29:11.452Z,94976.77
2017-09-09T17:31:39.042Z,94977.92
2017-09-09T17:34:06.563Z,94983.77
2017-09-09T17:36:34.077Z,94987.50
2017-09-09T17:39:01.636Z,94984.98
2017-09-09T17:41:29.172Z,94985.61
2017-09-09T17:43:56.783Z,94985.67
2017-09-09T17:46:24.351Z,94986.63
2017-09-09T17:48:51.860Z,94992.03
2017-09-09T17:51:19.620Z,94989.80
2017-09-09T17:53:47.165Z,94989.62
2017-09-09T17:56:14.664Z,94989.00
2017-09-09T17:58:42.226Z,94989.72
2017-09-09T18:01:09.895Z,94996.80
2017-09-09T18:03:37.414Z,94992.42
2017-09-09T18:06:04.937Z,94996.03
2017-09-09T18:08:32.485Z,94999.34
2017-09-09T18:11:00.015Z,94994.20
2017-09-09T18:13:27.559Z,94984.83
2017-09-09T18:15:55.127Z,94993.20
2017-09-09T18:18:22.885Z,94983.94
2017-09-09T18:20:50.634Z,94989.95
2017-09-09T18:23:18.177Z,94993.98
2017-09-09T18:25:49.861Z,95009.69
2017-09-09T18:28:18.810Z,95017.34
2017-09-09T18:30:46.382Z,95023.61
2017-09-09T18:33:13.947Z,95021.02
2017-09-09T18:35:48.646Z,95024.59
2017-09-09T18:38:17.359Z,95023.19
2017-09-09T18:40:44.869Z,95021.45
2017-09-09T18:43:12.413Z,95018.28
2017-09-09T18:45:40.003Z,95022.86
2017-09-09T18:48:07.530Z,95005.66
2017-09-09T18:50:35.269Z,95008.41
2017-09-09T18:53:02.878Z,95009.61
2017-09-09T18:55:30.396Z,95017.73
2017-09-09T18:57:57.986Z,95022.84
2017-09-09T19:00:25.940Z,95012.75
2017-09-09T19:02:53.561Z,95013.75
2017-09-09T19:05:21.190Z,95023.20
2017-09-09T19:07:48.761Z,95014.81
2017-09-09T19:10:16.780Z,95010.95
2017-09-09T19:12:44.299Z,95006.22
2017-09-09T19:15:11.903Z,95007.64
2017-09-09T19:17:39.690Z,95004.14
2017-09-09T19:20:07.229Z,95019.62
2017-09-09T19:22:34.915Z,95024.50
2017-09-09T19:25:02.493Z,95028.02
2017-09-09T19:27:30.047Z,95025.00
2017-09-09T19:29:57.645Z,95035.24
2017-09-09T19:32:25.231Z,95037.27
2017-09-09T19:34:52.766Z,95042.14
2017-09-09T19:37:20.367Z,95034.49
2017-09-09T19:39:48.023Z,95050.61
2017-09-09T19:42:15.786Z,95048.52
2017-09-09T19:44:43.354Z,95056.79
2017-09-09T19:47:10.948Z,95046.65
2017-09-09T19:49:38.476Z,95052.33
2017-09-09T19:52:06.259Z,95041.17
2017-09-09T19:54:33.891Z,95036.63
2017-09-09T19:57:01.446Z,95037.02
2017-09-09T19:59:29.207Z,95035.64
2017-09-09T20:01:56.819Z,95037.38
2017-09-09T20:04:24.427Z,95034.36
2017-09-09T20:06:52.200Z,95043.64
2017-09-09T20:09:19.947Z,95047.26
2017-09-09T20:11:47.650Z,95039.11
2017-09-09T20:14:15.265Z,95045.81
2017-09-09T20:16:42.853Z,95038.08
2017-09-09T20:19:10.414Z,95052.55
2017-09-09T20:21:37.961Z,95043.84
2017-09-09T20:24:05.662Z,95047.84
2017-09-09T20:26:33.485Z,95039.02
2017-09-09T20:29:01.081Z,95052.52
2017-09-09T20:31:28.717Z,95052.91
2017-09-09T20:33:56.266Z,95058.40
2017-09-09T20:36:23.831Z,95047.83
2017-09-09T20:38:51.467Z,95042.34
2017-09-09T20:41:19.064Z,95031.98
2017-09-09T20:43:46.644Z,95042.72
2017-09-09T20:46:14.298Z,95035.42
2017-09-09T20:48:41.910Z,95031.21
2017-09-09T20:51:09.516Z,95041.36
2017-09-09T20:53:37.129Z,95043.50
2017-09-09T20:56:04.975Z,95034.91
2017-09-09T20:58:32.566Z,95034.44
2017-09-09T21:01:00.397Z,95037.75
2017-09-09T21:03:27.990Z,95031.84
2017-09-09T21:05:56.176Z,95029.95
2017-09-09T21:08:23.792Z,95031.09
2017-09-09T21:10:51.321Z,95032.19
2017-09-09T21:13:20.275Z,95031.58
2017-09-09T21:15:47.860Z,95031.03
2017-09-09T21:18:15.619Z,95038.44
2017-09-09T21:20:43.419Z,95039.13
2017-09-09T21:23:11.054Z,95028.55
2017-09-09T21:25:38.686Z,95028.58
2017-09-09T21:28:06.298Z,95021.68
2017-09-09T21:30:33.894Z,95034.19
2017-09-09T21:33:01.688Z,95029.43
2017-09-09T21:35:29.734Z,95034.72
2017-09-09T21:37:58.087Z,95043.39
2017-09-09T21:40:26.055Z,95034.09
2017-09-09T21:42:54.568Z,95036.93
2017-09-09T21:45:22.752Z,95040.20
2017-09-09T21:47:50.593Z,95031.55
2017-09-09T21:50:18.164Z,95025.81
2017-09-09T21:52:45.761Z,95032.08
2017-09-09T21:55:13.386Z,95032.45
2017-09-09T21:57:41.176Z,95033.03
2017-09-09T22:00:08.991Z,95028.38
2017-09-09T22:02:36.810Z,95031.27
2017-09-09T22:05:04.622Z,95028.50
2017-09-09T22:07:32.215Z,95037.90
2017-09-09T22:09:59.726Z,95038.52
2017-09-09T22:12:27.358Z,95035.91
2017-09-09T22:14:54.972Z,95035.52
2017-09-09T22:17:22.549Z,95035.17
2017-09-09T22:19:50.119Z,95030.11
2017-09-09T22:22:17.705Z,95036.00
2017-09-09T22:24:45.245Z,95037.41
2017-09-09T22:27:13.039Z,95041.67
2017-09-09T22:29:40.633Z,95047.30
2017-09-09T22:32:08.256Z,95042.38
2017-09-09T22:34:35.786Z,95045.55
2017-09-09T22:37:03.369Z,95044.79
2017-09-09T22:39:30.939Z,95042.12
2017-09-09T22:41:58.448Z,95044.90
2017-09-09T22:44:26.015Z,95046.03
2017-09-09T22:46:53.640Z,95032.88
2017-09-09T22:49:21.228Z,95035.61
2017-09-09T22:51:48.789Z,95035.03
2017-09-09T22:54:16.387Z,95034.27
2017-09-09T22:56:43.924Z,95038.53
2017-09-09T22:59:11.482Z,95033.63
2017-09-09T23:01:39.085Z,95036.83
2017-09-09T23:04:06.665Z,95032.72
2017-09-09T23:06:34.485Z,95031.75
2017-09-09T23:09:02.077Z,95035.80
2017-09-09T23:11:29.667Z,95033.49
2017-09-09T23:13:57.277Z,95034.09
2017-09-09T23:16:24.904Z,95041.52
2017-09-09T23:18:52.453Z,95042.92
2017-09-09T23:21:19.997Z,95048.59
2017-09-09T23:23:47.620Z,95053.86
2017-09-09T23:26:15.155Z,95055.20
2017-09-09T23:28:42.677Z,95055.66
2017-09-09T23:31:10.256Z,95056.46
2017-09-09T23:33:37.870Z,95056.66
2017-09-09T23:36:05.400Z,95057.18
2017-09-09T23:38:32.996Z,95064.48
2017-09-09T23:41:00.578Z,95061.23
2017-09-09T23:43:28.186Z,95061.86
2017-09-09T23:45:55.768Z,95064.78
2017-09-09T23:48:23.311Z,95064.76
2017-09-09T23:50:50.838Z,95054.99
2017-09-09T23:53:18.392Z,95059.30
2017-09-09T23:55:45.917Z,95053.66
2017-09-09T23:58:13.422Z,95056.96
